createdAt,value
2023-04-13T00:01:00.674Z,0.77
2023-04-13T00:03:31.135Z,0.67
2023-04-13T00:05:59.785Z,0.90
2023-04-13T00:08:31.338Z,0.80
2023-04-13T00:11:02.418Z,0.90
2023-04-13T00:13:30.530Z,1.00
2023-04-13T00:16:01.857Z,0.90
2023-04-13T00:18:31.698Z,0.80
2023-04-13T00:21:01.440Z,1.03
2023-04-13T00:23:29.649Z,0.93
2023-04-13T00:25:58.754Z,0.80
2023-04-13T00:28:28.875Z,1.07
2023-04-13T00:30:57.754Z,0.90
2023-04-13T00:33:26.759Z,0.90
2023-04-13T00:35:55.162Z,0.90
2023-04-13T00:38:27.526Z,1.00
2023-04-13T00:40:56.452Z,0.87
2023-04-13T00:43:25.698Z,0.90
2023-04-13T00:45:58.248Z,1.00
2023-04-13T00:48:27.979Z,0.87
2023-04-13T00:50:56.533Z,0.87
2023-04-13T00:53:28.222Z,1.00
2023-04-13T00:55:57.316Z,0.90
2023-04-13T00:58:26.459Z,0.80
2023-04-13T01:00:56.546Z,1.00
2023-04-13T01:03:25.960Z,1.10
2023-04-13T01:06:06.281Z,1.10
2023-04-13T01:08:38.914Z,0.80
2023-04-13T01:11:14.907Z,0.70
2023-04-13T01:13:53.566Z,0.90
2023-04-13T01:16:28.262Z,1.13
2023-04-13T01:18:57.561Z,0.90
2023-04-13T01:21:34.623Z,0.90
2023-04-13T01:24:21.456Z,1.10
2023-04-13T01:26:58.578Z,1.10
2023-04-13T01:29:30.405Z,1.13
2023-04-13T01:31:58.790Z,1.00
2023-04-13T01:34:29.566Z,0.90
2023-04-13T01:36:58.814Z,1.10
2023-04-13T01:39:32.290Z,1.00
2023-04-13T01:42:02.390Z,1.20
2023-04-13T01:44:35.150Z,0.90
2023-04-13T01:47:16.504Z,0.93
2023-04-13T01:49:49.700Z,1.27
2023-04-13T01:52:19.107Z,1.00
2023-04-13T01:54:50.182Z,1.10
2023-04-13T01:57:19.517Z,1.10
2023-04-13T01:59:49.319Z,1.20
2023-04-13T02:02:18.104Z,1.00
2023-04-13T02:04:46.715Z,1.00
2023-04-13T02:07:16.417Z,1.30
2023-04-13T02:09:45.429Z,1.10
2023-04-13T02:12:15.523Z,1.30
2023-04-13T02:14:43.706Z,1.27
2023-04-13T02:17:13.304Z,1.30
2023-04-13T02:19:41.635Z,1.30
2023-04-13T02:22:10.550Z,1.30
2023-04-13T02:24:39.219Z,1.40
2023-04-13T02:27:07.580Z,1.30
2023-04-13T02:29:35.781Z,1.67
2023-04-13T02:32:04.212Z,1.37
2023-04-13T02:34:34.222Z,1.90
2023-04-13T02:37:02.396Z,1.83
2023-04-13T02:39:31.035Z,1.70
2023-04-13T02:41:59.808Z,1.83
2023-04-13T02:44:28.490Z,2.00
2023-04-13T02:46:59.365Z,1.80
2023-04-13T02:49:30.250Z,2.10
2023-04-13T02:51:59.926Z,2.30
2023-04-13T02:54:31.220Z,2.40
2023-04-13T02:57:01.279Z,2.30
2023-04-13T02:59:29.673Z,2.30
2023-04-13T03:01:59.099Z,2.50
2023-04-13T03:04:27.653Z,2.70
2023-04-13T03:06:57.054Z,2.77
2023-04-13T03:09:26.936Z,2.90
2023-04-13T03:11:58.898Z,2.80
2023-04-13T03:14:30.195Z,3.60
2023-04-13T03:16:58.986Z,3.00
2023-04-13T03:19:28.733Z,2.90
2023-04-13T03:22:00.200Z,3.13
2023-04-13T03:24:30.729Z,3.43
2023-04-13T03:26:59.458Z,3.50
2023-04-13T03:29:27.966Z,3.37
2023-04-13T03:31:56.528Z,3.87
2023-04-13T03:34:26.433Z,3.70
2023-04-13T03:36:54.963Z,4.50
2023-04-13T03:39:23.787Z,3.87
2023-04-13T03:41:53.865Z,3.80
2023-04-13T03:44:22.233Z,4.30
2023-04-13T03:46:50.904Z,3.80
2023-04-13T03:49:19.009Z,4.17
2023-04-13T03:51:47.481Z,6.40
2023-04-13T03:54:21.499Z,4.43
2023-04-13T03:56:49.714Z,4.83
2023-04-13T03:59:19.384Z,4.80
2023-04-13T04:01:47.622Z,4.93
2023-04-13T04:04:21.530Z,4.50
2023-04-13T04:06:50.079Z,4.93
2023-04-13T04:09:18.454Z,4.67
2023-04-13T04:11:46.977Z,5.00
2023-04-13T04:14:15.999Z,5.50
2023-04-13T04:16:46.084Z,5.47
2023-04-13T04:19:14.355Z,5.53
2023-04-13T04:21:45.195Z,5.47
2023-04-13T04:24:22.807Z,6.00
2023-04-13T04:26:57.558Z,5.67
2023-04-13T04:29:31.975Z,6.20
2023-04-13T04:32:02.057Z,6.57
2023-04-13T04:34:33.817Z,5.50
2023-04-13T04:37:19.495Z,6.13
2023-04-13T04:39:49.222Z,6.77
2023-04-13T04:42:19.217Z,6.60
2023-04-13T04:44:50.244Z,6.50
2023-04-13T04:47:20.000Z,6.10
2023-04-13T04:49:48.500Z,6.80
2023-04-13T04:52:17.120Z,6.70
2023-04-13T04:54:46.116Z,7.10
2023-04-13T04:57:14.743Z,7.43
2023-04-13T04:59:42.903Z,7.27
2023-04-13T05:02:11.175Z,6.73
2023-04-13T05:04:42.130Z,7.33
2023-04-13T05:07:10.800Z,7.23
2023-04-13T05:09:39.358Z,7.77
2023-04-13T05:12:10.296Z,7.30
2023-04-13T05:14:38.495Z,7.90
2023-04-13T05:17:06.992Z,6.73
2023-04-13T05:19:37.849Z,7.70
2023-04-13T05:22:11.668Z,7.80
2023-04-13T05:24:40.492Z,7.23
2023-04-13T05:27:10.049Z,7.70
2023-04-13T05:29:38.272Z,7.93
2023-04-13T05:32:07.045Z,8.30
2023-04-13T05:34:38.282Z,7.90
2023-04-13T05:37:06.511Z,8.17
2023-04-13T05:39:36.504Z,7.90
2023-04-13T05:42:05.124Z,8.37
2023-04-13T05:44:33.385Z,7.83
2023-04-13T05:47:02.710Z,7.83
2023-04-13T05:49:31.138Z,8.43
2023-04-13T05:51:59.451Z,8.77
2023-04-13T05:54:28.188Z,9.00
2023-04-13T05:56:58.048Z,8.70
2023-04-13T05:59:26.571Z,8.70
2023-04-13T06:01:56.348Z,9.00
2023-04-13T06:04:24.759Z,9.23
2023-04-13T06:06:59.954Z,12.67
2023-04-13T06:09:29.209Z,8.80
2023-04-13T06:12:01.469Z,9.47
2023-04-13T06:14:37.932Z,9.50
2023-04-13T06:17:06.362Z,8.90
2023-04-13T06:19:34.966Z,8.97
2023-04-13T06:22:05.059Z,9.70
2023-04-13T06:24:33.739Z,10.00
2023-04-13T06:27:04.789Z,10.00
2023-04-13T06:29:33.982Z,9.93
2023-04-13T06:32:02.335Z,10.03
2023-04-13T06:34:31.385Z,9.60
2023-04-13T06:36:59.827Z,10.37
2023-04-13T06:39:32.902Z,10.73
2023-04-13T06:42:06.544Z,10.27
2023-04-13T06:44:36.457Z,10.30
2023-04-13T06:47:05.916Z,9.50
2023-04-13T06:49:34.703Z,9.60
2023-04-13T06:52:03.055Z,10.77
2023-04-13T06:54:32.632Z,11.13
2023-04-13T06:57:02.931Z,10.83
2023-04-13T06:59:31.324Z,10.67
2023-04-13T07:01:59.560Z,10.77
2023-04-13T07:04:32.472Z,10.47
2023-04-13T07:07:02.737Z,11.00
2023-04-13T07:09:30.964Z,10.90
2023-04-13T07:12:03.777Z,11.63
2023-04-13T07:14:36.912Z,11.53
2023-04-13T07:17:05.626Z,11.10
2023-04-13T07:19:34.711Z,9.93
2023-04-13T07:22:06.753Z,10.87
2023-04-13T07:24:36.821Z,11.13
2023-04-13T07:27:05.591Z,12.07
2023-04-13T07:29:35.729Z,10.57
2023-04-13T07:32:06.823Z,10.40
2023-04-13T07:34:36.384Z,10.33
2023-04-13T07:37:04.984Z,10.67
2023-04-13T07:39:33.692Z,9.77
2023-04-13T07:42:02.130Z,9.30
2023-04-13T07:44:30.486Z,8.10
2023-04-13T07:47:02.442Z,8.43
2023-04-13T07:49:31.488Z,8.63
2023-04-13T07:52:00.838Z,8.63
2023-04-13T07:54:29.505Z,8.60
2023-04-13T07:56:58.436Z,8.00
2023-04-13T07:59:26.791Z,7.90
2023-04-13T08:01:56.450Z,7.60
2023-04-13T08:04:28.821Z,6.63
2023-04-13T08:06:57.294Z,7.37
2023-04-13T08:09:25.836Z,6.97
2023-04-13T08:11:57.532Z,7.00
2023-04-13T08:14:25.855Z,6.80
2023-04-13T08:16:54.121Z,7.47
2023-04-13T08:19:29.800Z,6.73
2023-04-13T08:22:00.981Z,6.80
2023-04-13T08:24:32.459Z,6.60
2023-04-13T08:27:00.884Z,6.30
2023-04-13T08:29:29.165Z,6.27
2023-04-13T08:32:00.708Z,7.20
2023-04-13T08:34:31.011Z,6.83
2023-04-13T08:37:02.590Z,6.00
2023-04-13T08:39:31.023Z,6.67
2023-04-13T08:41:59.705Z,6.23
2023-04-13T08:44:29.480Z,6.60
2023-04-13T08:46:58.417Z,6.43
2023-04-13T08:49:28.648Z,5.87
2023-04-13T08:52:04.888Z,6.10
2023-04-13T08:54:35.314Z,5.93
2023-04-13T08:57:08.816Z,5.97
2023-04-13T08:59:41.910Z,6.20
2023-04-13T09:02:11.368Z,6.30
2023-04-13T09:04:45.196Z,6.23
2023-04-13T09:07:30.052Z,6.00
2023-04-13T09:10:00.505Z,5.87
2023-04-13T09:12:29.730Z,5.90
2023-04-13T09:15:00.888Z,5.80
2023-04-13T09:17:31.979Z,5.53
2023-04-13T09:20:16.459Z,5.67
2023-04-13T09:22:50.391Z,5.63
2023-04-13T09:25:29.190Z,5.57
2023-04-13T09:28:01.238Z,4.67
2023-04-13T09:30:29.399Z,5.70
2023-04-13T09:33:06.236Z,5.30
2023-04-13T09:35:35.550Z,5.87
2023-04-13T09:38:06.339Z,5.63
2023-04-13T09:40:38.457Z,5.63
2023-04-13T09:43:09.795Z,5.63
2023-04-13T09:45:39.713Z,5.57
2023-04-13T09:48:20.737Z,6.00
2023-04-13T09:50:59.646Z,6.17
2023-04-13T09:53:40.568Z,5.50
2023-04-13T09:56:09.101Z,5.77
2023-04-13T09:58:43.283Z,6.00
2023-04-13T10:01:11.887Z,5.47
2023-04-13T10:03:40.333Z,5.70
2023-04-13T10:06:09.302Z,5.43
2023-04-13T10:08:41.039Z,5.30
2023-04-13T10:11:13.400Z,5.50
2023-04-13T10:13:49.998Z,5.40
2023-04-13T10:16:41.666Z,5.20
2023-04-13T10:19:13.618Z,4.27
2023-04-13T10:21:45.958Z,5.30
2023-04-13T10:24:18.386Z,5.40
2023-04-13T10:26:48.826Z,4.83
2023-04-13T10:29:21.344Z,4.87
2023-04-13T10:31:53.785Z,5.20
2023-04-13T10:34:29.590Z,5.30
2023-04-13T10:37:04.193Z,5.00
2023-04-13T10:39:35.147Z,4.90
2023-04-13T10:42:06.163Z,5.47
2023-04-13T10:44:47.084Z,4.80
2023-04-13T10:47:16.933Z,4.43
2023-04-13T10:49:46.797Z,4.70
2023-04-13T10:52:16.803Z,4.97
2023-04-13T10:54:46.480Z,4.30
2023-04-13T10:57:16.895Z,4.40
2023-04-13T10:59:58.556Z,4.33
2023-04-13T11:02:32.359Z,4.37
2023-04-13T11:05:04.758Z,3.97
2023-04-13T11:07:33.880Z,4.00
2023-04-13T11:10:04.406Z,4.17
2023-04-13T11:12:33.983Z,4.00
2023-04-13T11:15:02.703Z,4.03
2023-04-13T11:17:31.442Z,4.07
2023-04-13T11:20:01.817Z,4.27
2023-04-13T11:22:39.666Z,3.40
2023-04-13T11:25:13.941Z,3.73
2023-04-13T11:27:43.012Z,3.77
2023-04-13T11:30:13.261Z,3.83
2023-04-13T11:32:44.460Z,3.20
2023-04-13T11:35:15.752Z,3.60
2023-04-13T11:37:49.653Z,3.87
2023-04-13T11:40:23.018Z,3.93
2023-04-13T11:42:53.637Z,3.87
2023-04-13T11:45:23.502Z,4.70
2023-04-13T11:47:52.991Z,4.30
2023-04-13T11:50:23.791Z,3.57
2023-04-13T11:52:59.491Z,3.37
2023-04-13T11:55:30.149Z,3.67
2023-04-13T11:57:59.885Z,5.27
2023-04-13T12:00:30.371Z,3.90
2023-04-13T12:03:02.959Z,3.77
2023-04-13T12:05:34.456Z,4.27
2023-04-13T12:08:05.095Z,5.83
2023-04-13T12:10:41.298Z,5.03
2023-04-13T12:13:22.973Z,3.97
2023-04-13T12:16:08.904Z,4.10
2023-04-13T12:18:47.099Z,4.37
2023-04-13T12:21:17.787Z,5.73
2023-04-13T12:23:56.334Z,4.20
2023-04-13T12:27:16.188Z,3.77
2023-04-13T12:29:23.628Z,3.90
2023-04-13T12:31:51.910Z,5.00
2023-04-13T12:34:21.138Z,4.23
2023-04-13T12:36:49.506Z,4.30
2023-04-13T12:39:17.871Z,3.67
2023-04-13T12:41:48.000Z,3.00
2023-04-13T12:44:16.550Z,3.40
2023-04-13T12:46:45.332Z,3.60
2023-04-13T12:49:13.897Z,3.47
2023-04-13T12:51:42.581Z,4.17
2023-04-13T12:54:13.418Z,2.93
2023-04-13T12:56:42.037Z,2.97
2023-04-13T12:59:12.113Z,3.20
2023-04-13T13:01:40.378Z,2.50
2023-04-13T13:04:08.918Z,2.70
2023-04-13T13:06:37.399Z,2.80
2023-04-13T13:09:06.182Z,2.37
2023-04-13T13:11:38.192Z,2.07
2023-04-13T13:14:11.479Z,2.70
2023-04-13T13:16:41.256Z,2.60
2023-04-13T13:19:15.394Z,2.50
2023-04-13T13:21:43.691Z,2.40
2023-04-13T13:24:11.883Z,3.10
2023-04-13T13:29:30.170Z,2.60
2023-04-13T13:32:03.015Z,2.30
2023-04-13T13:34:31.231Z,2.60
2023-04-13T13:36:59.702Z,2.43
2023-04-13T13:39:38.580Z,2.13
2023-04-13T13:42:10.138Z,2.17
2023-04-13T13:44:38.345Z,2.97
2023-04-13T13:47:08.103Z,2.90
2023-04-13T13:49:36.353Z,3.40
2023-04-13T13:52:04.727Z,2.80
2023-04-13T13:54:32.889Z,3.23
2023-04-13T13:57:01.939Z,2.50
2023-04-13T13:59:31.077Z,2.90
2023-04-13T14:02:00.225Z,2.80
2023-04-13T14:04:30.312Z,3.43
2023-04-13T14:06:58.560Z,3.10
2023-04-13T14:09:27.941Z,2.57
2023-04-13T14:12:00.730Z,3.00
2023-04-13T14:14:32.739Z,3.33
2023-04-13T14:17:00.983Z,3.23
2023-04-13T14:19:32.523Z,3.33
2023-04-13T14:22:02.783Z,5.37
2023-04-13T14:24:32.624Z,2.50
2023-04-13T14:27:07.065Z,2.77
2023-04-13T14:29:35.438Z,3.00
2023-04-13T14:32:03.488Z,2.67
2023-04-13T14:34:34.748Z,2.70
2023-04-13T14:37:03.231Z,2.93
2023-04-13T14:39:33.897Z,2.67
2023-04-13T14:42:04.580Z,2.43
2023-04-13T14:44:32.810Z,3.03
2023-04-13T14:47:01.575Z,2.30
2023-04-13T14:49:29.862Z,2.90
2023-04-13T14:52:00.563Z,2.53
2023-04-13T14:54:29.009Z,2.80
2023-04-13T14:56:57.310Z,2.70
2023-04-13T14:59:27.628Z,3.03
2023-04-13T15:01:56.890Z,3.10
2023-04-13T15:04:28.325Z,2.93
2023-04-13T15:06:58.727Z,3.23
2023-04-13T15:09:31.824Z,2.50
2023-04-13T15:12:00.137Z,2.40
2023-04-13T15:14:31.637Z,2.00
2023-04-13T15:17:04.630Z,3.30
2023-04-13T15:19:32.803Z,3.27
2023-04-13T15:22:01.302Z,2.20
2023-04-13T15:24:31.492Z,2.17
2023-04-13T15:26:59.723Z,4.30
2023-04-13T15:29:30.693Z,2.50
2023-04-13T15:32:00.678Z,2.40
2023-04-13T15:34:28.875Z,3.03
2023-04-13T15:36:59.504Z,2.40
2023-04-13T15:39:30.140Z,2.20
2023-04-13T15:42:00.533Z,2.83
2023-04-13T15:44:29.015Z,1.83
2023-04-13T15:46:57.368Z,2.60
2023-04-13T15:49:25.601Z,3.50
2023-04-13T15:51:54.054Z,2.57
2023-04-13T15:54:22.366Z,2.57
2023-04-13T15:56:50.541Z,2.30
2023-04-13T15:59:20.244Z,2.50
2023-04-13T16:01:49.733Z,2.50
2023-04-13T16:04:18.546Z,2.37
2023-04-13T16:06:47.730Z,2.67
2023-04-13T16:09:20.073Z,2.30
2023-04-13T16:11:50.792Z,2.70
2023-04-13T16:14:21.480Z,2.20
2023-04-13T16:16:53.532Z,3.50
2023-04-13T16:19:21.656Z,2.90
2023-04-13T16:21:51.386Z,2.60
2023-04-13T16:24:21.129Z,2.67
2023-04-13T16:26:49.543Z,4.17
2023-04-13T16:29:19.205Z,2.30
2023-04-13T16:31:49.108Z,2.37
2023-04-13T16:36:49.136Z,3.60
2023-04-13T16:39:17.468Z,2.90
2023-04-13T16:41:45.882Z,2.90
2023-04-13T16:44:14.195Z,3.67
2023-04-13T16:46:43.839Z,2.60
2023-04-13T16:49:33.161Z,2.57
2023-04-13T16:52:02.338Z,2.47
2023-04-13T16:54:31.046Z,3.00
2023-04-13T16:56:59.246Z,3.20
2023-04-13T16:59:30.606Z,2.50
2023-04-13T17:02:00.815Z,3.50
2023-04-13T17:04:33.565Z,3.00
2023-04-13T17:07:03.467Z,2.70
2023-04-13T17:09:31.880Z,2.90
2023-04-13T17:11:59.957Z,2.70
2023-04-13T17:14:29.512Z,3.00
2023-04-13T17:16:59.409Z,2.50
2023-04-13T17:19:27.779Z,2.70
2023-04-13T17:21:56.369Z,3.00
2023-04-13T17:24:24.684Z,2.90
2023-04-13T17:26:52.772Z,2.83
2023-04-13T17:29:24.088Z,2.87
2023-04-13T17:31:55.975Z,2.80
2023-04-13T17:34:25.863Z,3.17
2023-04-13T17:36:54.113Z,3.10
2023-04-13T17:39:24.603Z,3.30
2023-04-13T17:41:53.044Z,3.17
2023-04-13T17:44:21.352Z,3.57
2023-04-13T17:46:50.791Z,3.57
2023-04-13T17:49:19.017Z,3.37
2023-04-13T17:51:50.675Z,2.30
2023-04-13T17:54:19.021Z,2.07
2023-04-13T17:56:47.211Z,1.97
2023-04-13T17:59:16.325Z,1.97
2023-04-13T18:01:44.779Z,2.00
2023-04-13T18:04:13.397Z,2.13
2023-04-13T18:06:42.470Z,2.57
2023-04-13T18:09:12.729Z,2.10
2023-04-13T18:11:41.289Z,2.90
2023-04-13T18:14:12.177Z,2.87
2023-04-13T18:16:40.547Z,3.00
2023-04-13T18:19:08.939Z,3.00
2023-04-13T18:21:37.248Z,3.20
2023-04-13T18:24:06.032Z,2.07
2023-04-13T18:26:35.859Z,2.20
2023-04-13T18:29:04.264Z,2.47
2023-04-13T18:31:32.934Z,2.20
2023-04-13T18:34:01.629Z,4.20
2023-04-13T18:36:32.086Z,3.50
2023-04-13T18:39:04.041Z,2.93
2023-04-13T18:41:32.836Z,3.90
2023-04-13T18:44:03.645Z,3.23
2023-04-13T18:46:33.953Z,3.50
2023-04-13T18:49:02.253Z,3.97
2023-04-13T18:51:31.218Z,3.70
2023-04-13T18:54:02.742Z,4.83
2023-04-13T18:56:31.228Z,4.00
2023-04-13T18:58:59.337Z,4.53
2023-04-13T19:01:31.343Z,3.93
2023-04-13T19:04:00.014Z,5.43
2023-04-13T19:06:28.547Z,4.43
2023-04-13T19:08:59.066Z,4.13
2023-04-13T19:11:27.963Z,4.23
2023-04-13T19:14:17.691Z,4.27
2023-04-13T19:16:59.462Z,3.87
2023-04-13T19:19:34.026Z,5.10
2023-04-13T19:22:02.607Z,4.80
2023-04-13T19:24:31.321Z,4.10
2023-04-13T19:27:01.493Z,3.93
2023-04-13T19:29:33.640Z,3.83
2023-04-13T19:32:03.600Z,3.67
2023-04-13T19:34:57.905Z,3.60
2023-04-13T19:37:26.499Z,3.87
2023-04-13T19:39:54.846Z,4.17
2023-04-13T19:42:30.865Z,3.37
2023-04-13T19:45:02.262Z,3.20
2023-04-13T19:47:32.143Z,3.67
2023-04-13T19:50:00.927Z,4.70
2023-04-13T19:52:29.344Z,4.30
2023-04-13T19:54:58.171Z,4.30
2023-04-13T19:57:26.755Z,3.60
2023-04-13T19:59:56.118Z,3.00
2023-04-13T20:02:24.967Z,3.00
2023-04-13T20:04:54.689Z,3.30
2023-04-13T20:07:25.671Z,3.23
2023-04-13T20:09:54.082Z,2.57
2023-04-13T20:12:22.267Z,3.13
2023-04-13T20:14:50.843Z,2.87
2023-04-13T20:17:19.061Z,2.80
2023-04-13T20:19:47.190Z,2.77
2023-04-13T20:22:18.401Z,2.63
2023-04-13T20:24:46.541Z,2.70
2023-04-13T20:27:14.748Z,2.87
2023-04-13T20:29:43.142Z,2.80
2023-04-13T20:32:11.270Z,3.07
2023-04-13T20:34:39.508Z,3.10
2023-04-13T20:37:10.010Z,3.47
2023-04-13T20:39:49.873Z,3.70
2023-04-13T20:42:19.628Z,3.50
2023-04-13T20:44:49.231Z,3.50
2023-04-13T20:47:17.440Z,3.60
2023-04-13T20:49:52.024Z,3.90
2023-04-13T20:52:20.199Z,3.80
2023-04-13T20:54:50.701Z,3.93
2023-04-13T20:57:20.089Z,3.90
2023-04-13T20:59:48.602Z,4.07
2023-04-13T21:02:16.861Z,4.60
2023-04-13T21:04:45.360Z,4.43
2023-04-13T21:07:16.567Z,4.87
2023-04-13T21:09:44.724Z,4.83
2023-04-13T21:12:14.312Z,5.10
2023-04-13T21:14:42.480Z,5.60
2023-04-13T21:17:19.249Z,5.80
2023-04-13T21:19:50.376Z,5.57
2023-04-13T21:22:19.909Z,6.00
2023-04-13T21:24:48.168Z,5.83
2023-04-13T21:27:18.618Z,5.70
2023-04-13T21:29:48.051Z,5.23
2023-04-13T21:32:16.460Z,5.10
2023-04-13T21:34:44.717Z,5.20
2023-04-13T21:37:13.017Z,5.60
2023-04-13T21:39:41.049Z,5.00
2023-04-13T21:42:09.883Z,6.03
2023-04-13T21:44:39.774Z,4.57
2023-04-13T21:47:07.878Z,7.27
2023-04-13T21:49:36.207Z,5.00
2023-04-13T21:52:04.504Z,4.77
2023-04-13T21:54:32.726Z,4.47
2023-04-13T21:57:01.266Z,5.00
2023-04-13T21:59:31.342Z,5.80
2023-04-13T22:02:03.609Z,4.80
2023-04-13T22:04:32.069Z,4.90
2023-04-13T22:07:00.479Z,5.30
2023-04-13T22:09:28.781Z,6.90
2023-04-13T22:11:57.118Z,6.77
2023-04-13T22:14:25.966Z,6.87
2023-04-13T22:16:54.466Z,4.87
2023-04-13T22:19:24.353Z,5.63
2023-04-13T22:21:52.838Z,6.10
2023-04-13T22:24:22.141Z,5.77
2023-04-13T22:26:50.355Z,5.57
2023-04-13T22:29:18.467Z,6.13
2023-04-13T22:31:46.764Z,5.67
2023-04-13T22:34:15.088Z,5.30
2023-04-13T22:36:44.801Z,7.57
2023-04-13T22:39:13.448Z,6.07
2023-04-13T22:41:42.153Z,5.50
2023-04-13T22:44:10.384Z,5.93
2023-04-13T22:46:38.788Z,5.73
2023-04-13T22:49:07.036Z,6.00
2023-04-13T22:51:39.872Z,6.40
2023-04-13T22:54:09.460Z,5.83
2023-04-13T22:56:37.675Z,6.60
2023-04-13T22:59:05.830Z,6.40
2023-04-13T23:01:34.226Z,8.10
2023-04-13T23:04:02.737Z,6.57
2023-04-13T23:06:31.238Z,8.13
2023-04-13T23:08:59.807Z,17.17
2023-04-13T23:11:29.722Z,5.90
2023-04-13T23:13:58.288Z,5.90
2023-04-13T23:16:27.664Z,6.73
2023-04-13T23:18:57.185Z,5.90
2023-04-13T23:21:26.592Z,6.60
2023-04-13T23:23:54.891Z,6.50
2023-04-13T23:26:22.975Z,6.17
2023-04-13T23:28:52.556Z,7.77
2023-04-13T23:31:20.940Z,7.57
2023-04-13T23:33:49.056Z,7.70
2023-04-13T23:36:17.543Z,8.60
2023-04-13T23:38:46.105Z,8.50
2023-04-13T23:41:14.229Z,8.40
2023-04-13T23:43:42.394Z,9.00
2023-04-13T23:46:13.147Z,8.80
2023-04-13T23:48:41.349Z,9.40
2023-04-13T23:51:09.542Z,8.87
2023-04-13T23:53:38.237Z,9.40
2023-04-13T23:56:07.150Z,8.50
2023-04-13T23:58:35.829Z,9.07
